sensor_id;sensor_type;location;lat;lon;timestamp;P1;durP1;ratioP1;P2;durP2;ratioP2
11034;SDS011;5571;48.110;-1.706;2023-04-15T00:00:14;8.43;;;1.60;;
11034;SDS011;5571;48.110;-1.706;2023-04-15T00:02:40;5.57;;;1.43;;
11034;SDS011;5571;48.110;-1.706;2023-04-15T00:05:06;7.83;;;1.87;;
11034;SDS011;5571;48.110;-1.706;2023-04-15T00:07:32;6.47;;;1.57;;
11034;SDS011;5571;48.110;-1.706;2023-04-15T00:09:58;4.07;;;1.43;;
11034;SDS011;5571;48.110;-1.706;2023-04-15T00:12:24;3.87;;;1.63;;
11034;SDS011;5571;48.110;-1.706;2023-04-15T00:14:51;4.73;;;1.87;;
11034;SDS011;5571;48.110;-1.706;2023-04-15T00:17:17;5.63;;;1.60;;
11034;SDS011;5571;48.110;-1.706;2023-04-15T00:19:42;9.63;;;2.07;;
11034;SDS011;5571;48.110;-1.706;2023-04-15T00:22:11;7.97;;;1.73;;
11034;SDS011;5571;48.110;-1.706;2023-04-15T00:24:37;8.07;;;2.07;;
11034;SDS011;5571;48.110;-1.706;2023-04-15T00:27:03;6.87;;;1.40;;
11034;SDS011;5571;48.110;-1.706;2023-04-15T00:29:29;6.77;;;1.67;;
11034;SDS011;5571;48.110;-1.706;2023-04-15T00:31:55;4.53;;;1.50;;
11034;SDS011;5571;48.110;-1.706;2023-04-15T00:34:21;7.87;;;1.70;;
11034;SDS011;5571;48.110;-1.706;2023-04-15T00:36:47;4.90;;;1.60;;
11034;SDS011;5571;48.110;-1.706;2023-04-15T00:39:13;5.83;;;1.80;;
11034;SDS011;5571;48.110;-1.706;2023-04-15T00:41:40;5.13;;;1.80;;
11034;SDS011;5571;48.110;-1.706;2023-04-15T00:44:06;7.00;;;1.70;;
11034;SDS011;5571;48.110;-1.706;2023-04-15T00:46:34;7.50;;;1.73;;
11034;SDS011;5571;48.110;-1.706;2023-04-15T00:49:05;4.23;;;1.33;;
11034;SDS011;5571;48.110;-1.706;2023-04-15T00:51:31;4.10;;;1.63;;
11034;SDS011;5571;48.110;-1.706;2023-04-15T00:54:00;3.43;;;1.27;;
11034;SDS011;5571;48.110;-1.706;2023-04-15T00:56:27;9.27;;;2.20;;
11034;SDS011;5571;48.110;-1.706;2023-04-15T00:58:53;7.33;;;2.43;;
11034;SDS011;5571;48.110;-1.706;2023-04-15T01:01:22;8.47;;;2.30;;
11034;SDS011;5571;48.110;-1.706;2023-04-15T01:03:50;5.70;;;1.50;;
11034;SDS011;5571;48.110;-1.706;2023-04-15T01:06:16;3.77;;;1.20;;
11034;SDS011;5571;48.110;-1.706;2023-04-15T01:08:42;4.83;;;1.63;;
11034;SDS011;5571;48.110;-1.706;2023-04-15T01:11:08;5.33;;;1.40;;
11034;SDS011;5571;48.110;-1.706;2023-04-15T01:13:36;3.50;;;1.17;;
11034;SDS011;5571;48.110;-1.706;2023-04-15T01:16:02;5.13;;;1.53;;
11034;SDS011;5571;48.110;-1.706;2023-04-15T01:18:28;3.83;;;1.73;;
11034;SDS011;5571;48.110;-1.706;2023-04-15T01:20:54;4.17;;;1.43;;
11034;SDS011;5571;48.110;-1.706;2023-04-15T01:23:20;5.77;;;1.60;;
11034;SDS011;5571;48.110;-1.706;2023-04-15T01:25:47;4.87;;;1.23;;
11034;SDS011;5571;48.110;-1.706;2023-04-15T01:28:14;4.80;;;1.60;;
11034;SDS011;5571;48.110;-1.706;2023-04-15T01:30:40;7.50;;;1.50;;
11034;SDS011;5571;48.110;-1.706;2023-04-15T01:33:06;5.90;;;1.80;;
11034;SDS011;5571;48.110;-1.706;2023-04-15T01:35:31;5.93;;;1.47;;
11034;SDS011;5571;48.110;-1.706;2023-04-15T01:38:07;3.93;;;1.50;;
11034;SDS011;5571;48.110;-1.706;2023-04-15T01:40:33;7.43;;;1.53;;
11034;SDS011;5571;48.110;-1.706;2023-04-15T01:42:59;5.00;;;1.47;;
11034;SDS011;5571;48.110;-1.706;2023-04-15T01:45:26;4.50;;;1.47;;
11034;SDS011;5571;48.110;-1.706;2023-04-15T01:47:52;3.23;;;1.50;;
11034;SDS011;5571;48.110;-1.706;2023-04-15T01:50:18;8.87;;;1.70;;
11034;SDS011;5571;48.110;-1.706;2023-04-15T01:52:44;5.57;;;1.40;;
11034;SDS011;5571;48.110;-1.706;2023-04-15T01:55:11;9.00;;;1.90;;
11034;SDS011;5571;48.110;-1.706;2023-04-15T01:57:37;6.90;;;1.53;;
11034;SDS011;5571;48.110;-1.706;2023-04-15T02:00:03;7.87;;;1.83;;
11034;SDS011;5571;48.110;-1.706;2023-04-15T02:02:28;5.93;;;1.73;;
11034;SDS011;5571;48.110;-1.706;2023-04-15T02:04:54;9.83;;;2.50;;
11034;SDS011;5571;48.110;-1.706;2023-04-15T02:07:20;8.40;;;4.20;;
11034;SDS011;5571;48.110;-1.706;2023-04-15T02:09:46;9.07;;;3.00;;
11034;SDS011;5571;48.110;-1.706;2023-04-15T02:12:11;7.77;;;2.47;;
11034;SDS011;5571;48.110;-1.706;2023-04-15T02:14:37;7.00;;;2.37;;
11034;SDS011;5571;48.110;-1.706;2023-04-15T02:17:03;7.60;;;3.13;;
11034;SDS011;5571;48.110;-1.706;2023-04-15T02:19:32;10.13;;;3.00;;
11034;SDS011;5571;48.110;-1.706;2023-04-15T02:21:59;9.60;;;2.10;;
11034;SDS011;5571;48.110;-1.706;2023-04-15T02:24:26;10.43;;;2.20;;
11034;SDS011;5571;48.110;-1.706;2023-04-15T02:26:52;4.07;;;2.20;;
11034;SDS011;5571;48.110;-1.706;2023-04-15T02:29:18;11.17;;;2.00;;
11034;SDS011;5571;48.110;-1.706;2023-04-15T02:31:43;10.10;;;1.70;;
11034;SDS011;5571;48.110;-1.706;2023-04-15T02:34:09;4.17;;;1.60;;
11034;SDS011;5571;48.110;-1.706;2023-04-15T02:36:35;5.90;;;1.70;;
11034;SDS011;5571;48.110;-1.706;2023-04-15T02:39:01;7.87;;;1.97;;
11034;SDS011;5571;48.110;-1.706;2023-04-15T02:41:28;5.17;;;1.60;;
11034;SDS011;5571;48.110;-1.706;2023-04-15T02:43:54;4.70;;;1.90;;
11034;SDS011;5571;48.110;-1.706;2023-04-15T02:46:20;6.20;;;1.93;;
11034;SDS011;5571;48.110;-1.706;2023-04-15T02:48:47;5.27;;;1.43;;
11034;SDS011;5571;48.110;-1.706;2023-04-15T02:51:15;9.33;;;2.13;;
11034;SDS011;5571;48.110;-1.706;2023-04-15T02:53:44;7.27;;;1.70;;
11034;SDS011;5571;48.110;-1.706;2023-04-15T02:56:10;6.13;;;2.00;;
11034;SDS011;5571;48.110;-1.706;2023-04-15T02:58:36;7.70;;;1.83;;
11034;SDS011;5571;48.110;-1.706;2023-04-15T03:01:03;3.70;;;1.50;;
11034;SDS011;5571;48.110;-1.706;2023-04-15T03:03:29;8.37;;;2.20;;
11034;SDS011;5571;48.110;-1.706;2023-04-15T03:05:54;9.20;;;2.03;;
11034;SDS011;5571;48.110;-1.706;2023-04-15T03:08:20;9.50;;;2.17;;
11034;SDS011;5571;48.110;-1.706;2023-04-15T03:10:46;6.77;;;1.77;;
11034;SDS011;5571;48.110;-1.706;2023-04-15T03:13:12;7.37;;;2.13;;
11034;SDS011;5571;48.110;-1.706;2023-04-15T03:15:38;8.30;;;1.97;;
11034;SDS011;5571;48.110;-1.706;2023-04-15T03:18:03;9.10;;;2.10;;
11034;SDS011;5571;48.110;-1.706;2023-04-15T03:20:29;5.33;;;1.77;;
11034;SDS011;5571;48.110;-1.706;2023-04-15T03:22:55;6.43;;;2.00;;
11034;SDS011;5571;48.110;-1.706;2023-04-15T03:25:21;5.03;;;1.73;;
11034;SDS011;5571;48.110;-1.706;2023-04-15T03:27:46;5.40;;;1.90;;
11034;SDS011;5571;48.110;-1.706;2023-04-15T03:30:12;7.33;;;2.20;;
11034;SDS011;5571;48.110;-1.706;2023-04-15T03:32:38;6.80;;;2.00;;
11034;SDS011;5571;48.110;-1.706;2023-04-15T03:35:04;12.27;;;2.10;;
11034;SDS011;5571;48.110;-1.706;2023-04-15T03:37:30;7.57;;;2.17;;
11034;SDS011;5571;48.110;-1.706;2023-04-15T03:39:56;8.97;;;2.00;;
11034;SDS011;5571;48.110;-1.706;2023-04-15T03:42:21;10.77;;;2.63;;
11034;SDS011;5571;48.110;-1.706;2023-04-15T03:44:47;9.10;;;2.10;;
11034;SDS011;5571;48.110;-1.706;2023-04-15T03:47:13;8.27;;;2.03;;
11034;SDS011;5571;48.110;-1.706;2023-04-15T03:49:39;11.17;;;2.10;;
11034;SDS011;5571;48.110;-1.706;2023-04-15T03:52:04;11.83;;;2.90;;
11034;SDS011;5571;48.110;-1.706;2023-04-15T03:54:30;10.53;;;2.30;;
11034;SDS011;5571;48.110;-1.706;2023-04-15T03:56:56;6.97;;;2.00;;
11034;SDS011;5571;48.110;-1.706;2023-04-15T03:59:21;12.67;;;2.43;;
11034;SDS011;5571;48.110;-1.706;2023-04-15T04:01:47;9.03;;;1.97;;
11034;SDS011;5571;48.110;-1.706;2023-04-15T04:04:13;9.33;;;2.23;;
11034;SDS011;5571;48.110;-1.706;2023-04-15T04:06:39;12.47;;;2.40;;
11034;SDS011;5571;48.110;-1.706;2023-04-15T04:09:04;8.57;;;2.43;;
11034;SDS011;5571;48.110;-1.706;2023-04-15T04:11:30;10.07;;;2.20;;
11034;SDS011;5571;48.110;-1.706;2023-04-15T04:13:57;11.33;;;2.50;;
11034;SDS011;5571;48.110;-1.706;2023-04-15T04:16:22;8.27;;;2.20;;
11034;SDS011;5571;48.110;-1.706;2023-04-15T04:18:48;6.83;;;1.80;;
11034;SDS011;5571;48.110;-1.706;2023-04-15T04:21:14;7.70;;;2.33;;
11034;SDS011;5571;48.110;-1.706;2023-04-15T04:23:40;7.30;;;2.30;;
11034;SDS011;5571;48.110;-1.706;2023-04-15T04:26:05;12.97;;;2.83;;
11034;SDS011;5571;48.110;-1.706;2023-04-15T04:28:31;7.80;;;1.90;;
11034;SDS011;5571;48.110;-1.706;2023-04-15T04:30:57;8.27;;;2.47;;
11034;SDS011;5571;48.110;-1.706;2023-04-15T04:33:22;11.27;;;3.40;;
11034;SDS011;5571;48.110;-1.706;2023-04-15T04:35:48;15.07;;;4.00;;
11034;SDS011;5571;48.110;-1.706;2023-04-15T04:38:14;6.73;;;2.50;;
11034;SDS011;5571;48.110;-1.706;2023-04-15T04:40:39;14.73;;;6.10;;
11034;SDS011;5571;48.110;-1.706;2023-04-15T04:43:05;12.10;;;5.23;;
11034;SDS011;5571;48.110;-1.706;2023-04-15T04:45:31;8.60;;;2.90;;
11034;SDS011;5571;48.110;-1.706;2023-04-15T04:47:56;7.43;;;2.47;;
11034;SDS011;5571;48.110;-1.706;2023-04-15T04:50:22;11.73;;;2.87;;
11034;SDS011;5571;48.110;-1.706;2023-04-15T04:52:48;14.20;;;3.43;;
11034;SDS011;5571;48.110;-1.706;2023-04-15T04:55:13;10.43;;;2.63;;
11034;SDS011;5571;48.110;-1.706;2023-04-15T04:57:39;12.70;;;2.50;;
11034;SDS011;5571;48.110;-1.706;2023-04-15T05:00:05;9.23;;;2.47;;
11034;SDS011;5571;48.110;-1.706;2023-04-15T05:02:32;10.27;;;2.47;;
11034;SDS011;5571;48.110;-1.706;2023-04-15T05:04:58;10.70;;;2.50;;
11034;SDS011;5571;48.110;-1.706;2023-04-15T05:07:23;13.07;;;3.37;;
11034;SDS011;5571;48.110;-1.706;2023-04-15T05:09:49;6.43;;;2.53;;
11034;SDS011;5571;48.110;-1.706;2023-04-15T05:12:15;9.83;;;2.50;;
11034;SDS011;5571;48.110;-1.706;2023-04-15T05:14:42;14.00;;;2.90;;
11034;SDS011;5571;48.110;-1.706;2023-04-15T05:17:08;9.67;;;2.40;;
11034;SDS011;5571;48.110;-1.706;2023-04-15T05:19:34;15.60;;;2.50;;
11034;SDS011;5571;48.110;-1.706;2023-04-15T05:21:59;14.93;;;2.47;;
11034;SDS011;5571;48.110;-1.706;2023-04-15T05:24:25;15.00;;;2.80;;
11034;SDS011;5571;48.110;-1.706;2023-04-15T05:26:51;11.17;;;2.80;;
11034;SDS011;5571;48.110;-1.706;2023-04-15T05:29:17;11.30;;;2.63;;
11034;SDS011;5571;48.110;-1.706;2023-04-15T05:31:42;12.90;;;2.90;;
11034;SDS011;5571;48.110;-1.706;2023-04-15T05:34:08;14.13;;;2.63;;
11034;SDS011;5571;48.110;-1.706;2023-04-15T05:36:35;11.30;;;2.70;;
11034;SDS011;5571;48.110;-1.706;2023-04-15T05:39:01;12.23;;;2.80;;
11034;SDS011;5571;48.110;-1.706;2023-04-15T05:41:27;12.67;;;2.63;;
11034;SDS011;5571;48.110;-1.706;2023-04-15T05:43:52;15.30;;;3.27;;
11034;SDS011;5571;48.110;-1.706;2023-04-15T05:46:18;11.13;;;3.70;;
11034;SDS011;5571;48.110;-1.706;2023-04-15T05:48:43;9.50;;;2.47;;
11034;SDS011;5571;48.110;-1.706;2023-04-15T05:51:09;15.40;;;3.07;;
11034;SDS011;5571;48.110;-1.706;2023-04-15T05:53:35;14.77;;;3.17;;
11034;SDS011;5571;48.110;-1.706;2023-04-15T05:56:01;16.53;;;3.17;;
11034;SDS011;5571;48.110;-1.706;2023-04-15T05:58:27;11.67;;;2.67;;
11034;SDS011;5571;48.110;-1.706;2023-04-15T06:00:52;9.40;;;2.50;;
11034;SDS011;5571;48.110;-1.706;2023-04-15T06:03:18;17.07;;;3.50;;
11034;SDS011;5571;48.110;-1.706;2023-04-15T06:05:43;14.93;;;3.70;;
11034;SDS011;5571;48.110;-1.706;2023-04-15T06:08:09;15.87;;;2.67;;
11034;SDS011;5571;48.110;-1.706;2023-04-15T06:10:35;15.17;;;2.60;;
11034;SDS011;5571;48.110;-1.706;2023-04-15T06:13:04;16.57;;;2.87;;
11034;SDS011;5571;48.110;-1.706;2023-04-15T06:15:31;11.97;;;2.80;;
11034;SDS011;5571;48.110;-1.706;2023-04-15T06:17:56;12.67;;;2.57;;
11034;SDS011;5571;48.110;-1.706;2023-04-15T06:20:22;11.10;;;2.70;;
11034;SDS011;5571;48.110;-1.706;2023-04-15T06:22:48;12.30;;;3.00;;
11034;SDS011;5571;48.110;-1.706;2023-04-15T06:25:13;16.00;;;3.33;;
11034;SDS011;5571;48.110;-1.706;2023-04-15T06:27:39;12.63;;;2.80;;
11034;SDS011;5571;48.110;-1.706;2023-04-15T06:30:05;11.77;;;2.63;;
11034;SDS011;5571;48.110;-1.706;2023-04-15T06:32:32;12.70;;;2.57;;
11034;SDS011;5571;48.110;-1.706;2023-04-15T06:34:57;12.37;;;2.70;;
11034;SDS011;5571;48.110;-1.706;2023-04-15T06:37:23;13.27;;;2.97;;
11034;SDS011;5571;48.110;-1.706;2023-04-15T06:39:49;12.47;;;3.10;;
11034;SDS011;5571;48.110;-1.706;2023-04-15T06:42:14;7.40;;;2.87;;
11034;SDS011;5571;48.110;-1.706;2023-04-15T06:44:40;11.90;;;2.33;;
11034;SDS011;5571;48.110;-1.706;2023-04-15T06:47:06;15.90;;;3.50;;
11034;SDS011;5571;48.110;-1.706;2023-04-15T06:49:33;14.03;;;2.77;;
11034;SDS011;5571;48.110;-1.706;2023-04-15T06:51:59;11.20;;;2.57;;
11034;SDS011;5571;48.110;-1.706;2023-04-15T06:54:25;10.80;;;2.73;;
11034;SDS011;5571;48.110;-1.706;2023-04-15T06:56:51;14.77;;;2.70;;
11034;SDS011;5571;48.110;-1.706;2023-04-15T06:59:17;16.37;;;3.00;;
11034;SDS011;5571;48.110;-1.706;2023-04-15T07:01:43;12.90;;;2.60;;
11034;SDS011;5571;48.110;-1.706;2023-04-15T07:04:08;13.30;;;3.47;;
11034;SDS011;5571;48.110;-1.706;2023-04-15T07:06:35;16.20;;;2.70;;
11034;SDS011;5571;48.110;-1.706;2023-04-15T07:09:00;12.37;;;2.90;;
11034;SDS011;5571;48.110;-1.706;2023-04-15T07:11:27;9.90;;;2.83;;
11034;SDS011;5571;48.110;-1.706;2023-04-15T07:13:52;14.23;;;2.73;;
11034;SDS011;5571;48.110;-1.706;2023-04-15T07:16:18;18.40;;;3.27;;
11034;SDS011;5571;48.110;-1.706;2023-04-15T07:18:44;17.33;;;2.80;;
11034;SDS011;5571;48.110;-1.706;2023-04-15T07:21:09;10.53;;;2.90;;
11034;SDS011;5571;48.110;-1.706;2023-04-15T07:23:35;16.07;;;2.93;;
11034;SDS011;5571;48.110;-1.706;2023-04-15T07:26:01;13.93;;;2.80;;
11034;SDS011;5571;48.110;-1.706;2023-04-15T07:28:27;13.90;;;3.33;;
11034;SDS011;5571;48.110;-1.706;2023-04-15T07:30:53;19.77;;;3.43;;
11034;SDS011;5571;48.110;-1.706;2023-04-15T07:33:21;16.10;;;3.03;;
11034;SDS011;5571;48.110;-1.706;2023-04-15T07:35:47;11.47;;;3.10;;
11034;SDS011;5571;48.110;-1.706;2023-04-15T07:38:13;17.90;;;3.37;;
11034;SDS011;5571;48.110;-1.706;2023-04-15T07:40:38;17.00;;;3.03;;
11034;SDS011;5571;48.110;-1.706;2023-04-15T07:43:04;14.00;;;2.73;;
11034;SDS011;5571;48.110;-1.706;2023-04-15T07:45:33;11.20;;;2.53;;
11034;SDS011;5571;48.110;-1.706;2023-04-15T07:47:59;17.83;;;3.33;;
11034;SDS011;5571;48.110;-1.706;2023-04-15T07:50:28;8.00;;;2.40;;
11034;SDS011;5571;48.110;-1.706;2023-04-15T07:52:53;11.80;;;2.97;;
11034;SDS011;5571;48.110;-1.706;2023-04-15T07:55:19;12.10;;;2.60;;
11034;SDS011;5571;48.110;-1.706;2023-04-15T07:57:47;12.70;;;3.30;;
11034;SDS011;5571;48.110;-1.706;2023-04-15T08:00:14;15.10;;;3.30;;
11034;SDS011;5571;48.110;-1.706;2023-04-15T08:02:40;7.27;;;2.67;;
11034;SDS011;5571;48.110;-1.706;2023-04-15T08:05:07;10.03;;;2.77;;
11034;SDS011;5571;48.110;-1.706;2023-04-15T08:07:35;15.30;;;2.97;;
11034;SDS011;5571;48.110;-1.706;2023-04-15T08:10:01;11.27;;;3.10;;
11034;SDS011;5571;48.110;-1.706;2023-04-15T08:12:29;12.03;;;2.53;;
11034;SDS011;5571;48.110;-1.706;2023-04-15T08:14:55;20.37;;;3.00;;
11034;SDS011;5571;48.110;-1.706;2023-04-15T08:17:21;13.20;;;2.80;;
11034;SDS011;5571;48.110;-1.706;2023-04-15T08:19:47;10.17;;;2.53;;
11034;SDS011;5571;48.110;-1.706;2023-04-15T08:22:13;10.70;;;2.60;;
11034;SDS011;5571;48.110;-1.706;2023-04-15T08:24:39;20.63;;;2.97;;
11034;SDS011;5571;48.110;-1.706;2023-04-15T08:27:04;11.37;;;2.63;;
11034;SDS011;5571;48.110;-1.706;2023-04-15T08:29:33;10.20;;;2.47;;
11034;SDS011;5571;48.110;-1.706;2023-04-15T08:31:59;12.77;;;3.20;;
11034;SDS011;5571;48.110;-1.706;2023-04-15T08:34:25;10.40;;;2.57;;
11034;SDS011;5571;48.110;-1.706;2023-04-15T08:36:51;11.47;;;2.97;;
11034;SDS011;5571;48.110;-1.706;2023-04-15T08:39:17;11.13;;;2.67;;
11034;SDS011;5571;48.110;-1.706;2023-04-15T08:41:46;10.30;;;2.67;;
11034;SDS011;5571;48.110;-1.706;2023-04-15T08:44:16;9.63;;;2.47;;
11034;SDS011;5571;48.110;-1.706;2023-04-15T08:46:42;9.37;;;2.30;;
11034;SDS011;5571;48.110;-1.706;2023-04-15T08:49:09;8.40;;;2.30;;
11034;SDS011;5571;48.110;-1.706;2023-04-15T08:51:39;9.47;;;2.70;;
11034;SDS011;5571;48.110;-1.706;2023-04-15T08:54:06;6.50;;;1.90;;
11034;SDS011;5571;48.110;-1.706;2023-04-15T08:56:33;11.07;;;2.17;;
11034;SDS011;5571;48.110;-1.706;2023-04-15T08:58:59;8.63;;;2.13;;
11034;SDS011;5571;48.110;-1.706;2023-04-15T09:01:26;6.93;;;2.10;;
11034;SDS011;5571;48.110;-1.706;2023-04-15T09:03:52;13.07;;;3.00;;
11034;SDS011;5571;48.110;-1.706;2023-04-15T09:06:21;11.27;;;3.33;;
11034;SDS011;5571;48.110;-1.706;2023-04-15T09:08:48;7.20;;;2.03;;
11034;SDS011;5571;48.110;-1.706;2023-04-15T09:11:14;6.30;;;2.20;;
11034;SDS011;5571;48.110;-1.706;2023-04-15T09:13:41;7.93;;;1.47;;
11034;SDS011;5571;48.110;-1.706;2023-04-15T09:16:07;6.00;;;1.73;;
11034;SDS011;5571;48.110;-1.706;2023-04-15T09:18:33;6.67;;;1.90;;
11034;SDS011;5571;48.110;-1.706;2023-04-15T09:21:04;7.13;;;1.57;;
11034;SDS011;5571;48.110;-1.706;2023-04-15T09:23:35;5.63;;;1.80;;
11034;SDS011;5571;48.110;-1.706;2023-04-15T09:26:02;6.13;;;1.20;;
11034;SDS011;5571;48.110;-1.706;2023-04-15T09:28:28;5.97;;;1.87;;
11034;SDS011;5571;48.110;-1.706;2023-04-15T09:30:58;6.10;;;1.77;;
11034;SDS011;5571;48.110;-1.706;2023-04-15T09:33:25;6.33;;;1.60;;
11034;SDS011;5571;48.110;-1.706;2023-04-15T09:35:55;4.17;;;1.47;;
11034;SDS011;5571;48.110;-1.706;2023-04-15T09:38:25;6.50;;;1.70;;
11034;SDS011;5571;48.110;-1.706;2023-04-15T09:40:51;3.67;;;1.60;;
11034;SDS011;5571;48.110;-1.706;2023-04-15T09:43:17;7.20;;;1.67;;
11034;SDS011;5571;48.110;-1.706;2023-04-15T09:45:49;4.30;;;1.53;;
11034;SDS011;5571;48.110;-1.706;2023-04-15T09:50:43;3.20;;;1.63;;
11034;SDS011;5571;48.110;-1.706;2023-04-15T09:53:09;7.17;;;1.67;;
11034;SDS011;5571;48.110;-1.706;2023-04-15T09:55:36;5.97;;;1.43;;
11034;SDS011;5571;48.110;-1.706;2023-04-15T09:58:07;4.77;;;1.60;;
11034;SDS011;5571;48.110;-1.706;2023-04-15T10:00:33;2.93;;;1.50;;
11034;SDS011;5571;48.110;-1.706;2023-04-15T10:03:00;4.03;;;1.77;;
11034;SDS011;5571;48.110;-1.706;2023-04-15T10:05:26;7.03;;;1.40;;
11034;SDS011;5571;48.110;-1.706;2023-04-15T10:07:53;6.07;;;1.53;;
11034;SDS011;5571;48.110;-1.706;2023-04-15T10:10:20;6.10;;;1.77;;
11034;SDS011;5571;48.110;-1.706;2023-04-15T10:12:45;4.43;;;1.20;;
11034;SDS011;5571;48.110;-1.706;2023-04-15T10:15:14;6.30;;;1.70;;
11034;SDS011;5571;48.110;-1.706;2023-04-15T10:17:42;4.43;;;1.30;;
11034;SDS011;5571;48.110;-1.706;2023-04-15T10:20:09;4.17;;;1.63;;
11034;SDS011;5571;48.110;-1.706;2023-04-15T10:22:37;5.80;;;1.80;;
11034;SDS011;5571;48.110;-1.706;2023-04-15T10:25:02;4.20;;;1.23;;
11034;SDS011;5571;48.110;-1.706;2023-04-15T10:27:30;6.93;;;1.83;;
11034;SDS011;5571;48.110;-1.706;2023-04-15T10:29:56;3.07;;;1.10;;
11034;SDS011;5571;48.110;-1.706;2023-04-15T10:32:24;6.70;;;1.87;;
11034;SDS011;5571;48.110;-1.706;2023-04-15T10:34:51;4.80;;;1.33;;
11034;SDS011;5571;48.110;-1.706;2023-04-15T10:37:22;3.07;;;1.30;;
11034;SDS011;5571;48.110;-1.706;2023-04-15T10:39:57;4.20;;;1.40;;
11034;SDS011;5571;48.110;-1.706;2023-04-15T10:42:23;4.30;;;1.37;;
11034;SDS011;5571;48.110;-1.706;2023-04-15T10:44:57;3.60;;;1.50;;
11034;SDS011;5571;48.110;-1.706;2023-04-15T10:47:24;5.40;;;1.33;;
11034;SDS011;5571;48.110;-1.706;2023-04-15T10:49:57;2.50;;;1.23;;
11034;SDS011;5571;48.110;-1.706;2023-04-15T10:52:24;3.20;;;1.13;;
11034;SDS011;5571;48.110;-1.706;2023-04-15T10:55:11;2.30;;;1.20;;
11034;SDS011;5571;48.110;-1.706;2023-04-15T10:57:37;3.70;;;1.30;;
11034;SDS011;5571;48.110;-1.706;2023-04-15T11:05:07;3.37;;;1.40;;
11034;SDS011;5571;48.110;-1.706;2023-04-15T11:07:40;3.53;;;1.03;;
11034;SDS011;5571;48.110;-1.706;2023-04-15T11:12:52;2.93;;;1.20;;
11034;SDS011;5571;48.110;-1.706;2023-04-15T11:18:19;3.73;;;1.40;;
11034;SDS011;5571;48.110;-1.706;2023-04-15T11:20:51;2.27;;;1.03;;
11034;SDS011;5571;48.110;-1.706;2023-04-15T11:23:20;4.80;;;1.30;;
11034;SDS011;5571;48.110;-1.706;2023-04-15T11:25:53;6.77;;;1.60;;
11034;SDS011;5571;48.110;-1.706;2023-04-15T11:28:22;4.77;;;1.40;;
11034;SDS011;5571;48.110;-1.706;2023-04-15T11:30:50;3.93;;;1.17;;
11034;SDS011;5571;48.110;-1.706;2023-04-15T11:33:16;2.90;;;1.10;;
11034;SDS011;5571;48.110;-1.706;2023-04-15T11:35:41;3.90;;;1.30;;
11034;SDS011;5571;48.110;-1.706;2023-04-15T11:38:08;3.27;;;1.30;;
11034;SDS011;5571;48.110;-1.706;2023-04-15T11:40:38;4.53;;;1.87;;
11034;SDS011;5571;48.110;-1.706;2023-04-15T11:45:34;4.83;;;1.40;;
11034;SDS011;5571;48.110;-1.706;2023-04-15T11:48:04;4.57;;;2.00;;
11034;SDS011;5571;48.110;-1.706;2023-04-15T11:50:31;3.27;;;1.30;;
11034;SDS011;5571;48.110;-1.706;2023-04-15T11:53:00;3.10;;;1.40;;
11034;SDS011;5571;48.110;-1.706;2023-04-15T11:55:30;2.53;;;1.30;;
11034;SDS011;5571;48.110;-1.706;2023-04-15T12:03:25;3.93;;;1.40;;
11034;SDS011;5571;48.110;-1.706;2023-04-15T12:13:55;2.23;;;1.47;;
11034;SDS011;5571;48.110;-1.706;2023-04-15T12:16:23;2.50;;;1.40;;
11034;SDS011;5571;48.110;-1.706;2023-04-15T12:18:52;2.53;;;1.10;;
11034;SDS011;5571;48.110;-1.706;2023-04-15T12:21:36;2.23;;;1.30;;
11034;SDS011;5571;48.110;-1.706;2023-04-15T12:24:08;3.60;;;1.20;;
11034;SDS011;5571;48.110;-1.706;2023-04-15T12:26:45;3.43;;;1.03;;
11034;SDS011;5571;48.110;-1.706;2023-04-15T12:29:13;6.20;;;1.20;;
11034;SDS011;5571;48.110;-1.706;2023-04-15T12:31:53;3.33;;;1.27;;
11034;SDS011;5571;48.110;-1.706;2023-04-15T12:34:30;8.03;;;1.40;;
11034;SDS011;5571;48.110;-1.706;2023-04-15T12:36:57;2.53;;;1.00;;
11034;SDS011;5571;48.110;-1.706;2023-04-15T12:39:27;3.77;;;1.60;;
11034;SDS011;5571;48.110;-1.706;2023-04-15T12:41:55;6.13;;;1.40;;
11034;SDS011;5571;48.110;-1.706;2023-04-15T12:44:21;2.77;;;1.30;;
11034;SDS011;5571;48.110;-1.706;2023-04-15T12:46:48;5.60;;;1.40;;
11034;SDS011;5571;48.110;-1.706;2023-04-15T12:49:15;2.88;;;1.13;;
11034;SDS011;5571;48.110;-1.706;2023-04-15T12:51:43;3.25;;;1.15;;
11034;SDS011;5571;48.110;-1.706;2023-04-15T12:54:09;4.43;;;1.40;;
11034;SDS011;5571;48.110;-1.706;2023-04-15T12:56:35;1.67;;;1.10;;
11034;SDS011;5571;48.110;-1.706;2023-04-15T12:59:01;2.97;;;1.27;;
11034;SDS011;5571;48.110;-1.706;2023-04-15T13:01:26;4.80;;;1.60;;
11034;SDS011;5571;48.110;-1.706;2023-04-15T13:03:52;2.80;;;1.33;;
11034;SDS011;5571;48.110;-1.706;2023-04-15T13:06:18;1.60;;;1.08;;
11034;SDS011;5571;48.110;-1.706;2023-04-15T13:08:43;4.07;;;1.30;;
11034;SDS011;5571;48.110;-1.706;2023-04-15T13:11:09;2.63;;;1.20;;
11034;SDS011;5571;48.110;-1.706;2023-04-15T13:13:35;3.33;;;1.40;;
11034;SDS011;5571;48.110;-1.706;2023-04-15T13:16:01;6.23;;;1.60;;
11034;SDS011;5571;48.110;-1.706;2023-04-15T13:18:26;3.70;;;1.60;;
11034;SDS011;5571;48.110;-1.706;2023-04-15T13:20:52;1.90;;;1.20;;
11034;SDS011;5571;48.110;-1.706;2023-04-15T13:23:19;3.40;;;1.20;;
11034;SDS011;5571;48.110;-1.706;2023-04-15T13:25:45;3.37;;;1.50;;
11034;SDS011;5571;48.110;-1.706;2023-04-15T13:28:11;3.20;;;1.10;;
11034;SDS011;5571;48.110;-1.706;2023-04-15T13:30:37;4.10;;;1.10;;
11034;SDS011;5571;48.110;-1.706;2023-04-15T13:33:03;2.60;;;1.00;;
11034;SDS011;5571;48.110;-1.706;2023-04-15T13:35:31;4.83;;;1.17;;
11034;SDS011;5571;48.110;-1.706;2023-04-15T13:37:56;3.15;;;1.23;;
11034;SDS011;5571;48.110;-1.706;2023-04-15T13:40:22;2.88;;;1.08;;
11034;SDS011;5571;48.110;-1.706;2023-04-15T13:42:47;2.67;;;0.98;;
11034;SDS011;5571;48.110;-1.706;2023-04-15T13:45:13;3.28;;;1.40;;
11034;SDS011;5571;48.110;-1.706;2023-04-15T13:47:40;3.70;;;1.30;;
11034;SDS011;5571;48.110;-1.706;2023-04-15T13:50:06;2.80;;;1.42;;
11034;SDS011;5571;48.110;-1.706;2023-04-15T13:52:32;6.35;;;1.42;;
11034;SDS011;5571;48.110;-1.706;2023-04-15T13:54:57;3.47;;;1.60;;
11034;SDS011;5571;48.110;-1.706;2023-04-15T13:57:23;3.80;;;1.42;;
11034;SDS011;5571;48.110;-1.706;2023-04-15T13:59:49;3.22;;;1.40;;
11034;SDS011;5571;48.110;-1.706;2023-04-15T14:02:15;2.90;;;1.25;;
11034;SDS011;5571;48.110;-1.706;2023-04-15T14:04:40;3.55;;;1.33;;
11034;SDS011;5571;48.110;-1.706;2023-04-15T14:07:06;3.45;;;1.33;;
11034;SDS011;5571;48.110;-1.706;2023-04-15T14:09:32;2.22;;;1.30;;
11034;SDS011;5571;48.110;-1.706;2023-04-15T14:11:57;4.53;;;1.38;;
11034;SDS011;5571;48.110;-1.706;2023-04-15T14:14:24;3.53;;;1.20;;
11034;SDS011;5571;48.110;-1.706;2023-04-15T14:16:49;1.38;;;0.90;;
11034;SDS011;5571;48.110;-1.706;2023-04-15T14:19:15;2.28;;;1.10;;
11034;SDS011;5571;48.110;-1.706;2023-04-15T14:21:41;3.67;;;1.95;;
11034;SDS011;5571;48.110;-1.706;2023-04-15T14:24:06;3.40;;;1.60;;
11034;SDS011;5571;48.110;-1.706;2023-04-15T14:26:32;1.55;;;1.10;;
11034;SDS011;5571;48.110;-1.706;2023-04-15T14:28:57;3.45;;;1.23;;
11034;SDS011;5571;48.110;-1.706;2023-04-15T14:31:23;2.55;;;1.30;;
11034;SDS011;5571;48.110;-1.706;2023-04-15T14:33:49;2.97;;;1.27;;
11034;SDS011;5571;48.110;-1.706;2023-04-15T14:36:14;2.53;;;1.05;;
11034;SDS011;5571;48.110;-1.706;2023-04-15T14:38:40;3.85;;;1.10;;
11034;SDS011;5571;48.110;-1.706;2023-04-15T14:41:06;4.45;;;1.10;;
11034;SDS011;5571;48.110;-1.706;2023-04-15T14:43:32;2.08;;;1.00;;
11034;SDS011;5571;48.110;-1.706;2023-04-15T14:45:58;3.20;;;1.27;;
11034;SDS011;5571;48.110;-1.706;2023-04-15T14:48:24;3.80;;;1.02;;
11034;SDS011;5571;48.110;-1.706;2023-04-15T14:50:50;2.80;;;1.33;;
11034;SDS011;5571;48.110;-1.706;2023-04-15T14:53:16;2.00;;;0.77;;
11034;SDS011;5571;48.110;-1.706;2023-04-15T14:55:42;3.92;;;1.35;;
11034;SDS011;5571;48.110;-1.706;2023-04-15T14:58:08;5.80;;;1.23;;
11034;SDS011;5571;48.110;-1.706;2023-04-15T15:00:34;3.63;;;1.48;;
11034;SDS011;5571;48.110;-1.706;2023-04-15T15:03:00;2.70;;;1.15;;
11034;SDS011;5571;48.110;-1.706;2023-04-15T15:05:26;1.77;;;0.70;;
11034;SDS011;5571;48.110;-1.706;2023-04-15T15:07:51;2.70;;;1.10;;